Time;durP1;ratioP1;P1;durP2;ratioP2;P2;SDS_P1;SDS_P2;PMS_P1;PMS_P2;Temp;Humidity;BMP_temperature;BMP_pressure;BME280_temperature;BME280_humidity;BME280_pressure;Samples;Min_cycle;Max_cycle;Signal;HPM_P1;HPM_P2
2023/05/18 00:01:18;;;;;;;;;2.00;2.00;;;;;-146.67;29.46;75276.59;5082156;28;61798;-82
2023/05/18 00:03:44;;;;;;;;;2.00;2.00;;;;;-146.67;29.40;75274.59;5079625;27;61932;-82
2023/05/18 00:06:09;;;;;;;;;3.25;2.00;;;;;-146.67;29.58;75274.59;5081436;28;62250;-82
2023/05/18 00:08:35;;;;;;;;;0.00;0.00;;;;;-146.67;29.55;75278.59;5082073;28;61761;-82
2023/05/18 00:11:02;;;;;;;;;2.50;2.50;;;;;-146.67;29.83;75278.59;5081885;28;62212;-83
2023/05/18 00:13:29;;;;;;;;;2.50;2.25;;;;;-146.67;29.95;75280.59;5081125;28;62091;-83
2023/05/18 00:15:55;;;;;;;;;1.75;1.75;;;;;-146.67;29.79;75284.59;5081698;28;61770;-83
2023/05/18 00:18:22;;;;;;;;;2.25;2.00;;;;;-146.67;29.79;75286.59;5081025;28;62102;-83
2023/05/18 00:20:49;;;;;;;;;1.25;1.25;;;;;-146.67;29.85;75282.59;5081514;28;61974;-82
2023/05/18 00:23:15;;;;;;;;;6.00;2.00;;;;;-146.67;29.74;75290.59;5081141;28;62899;-83
2023/05/18 00:25:41;;;;;;;;;4.00;2.75;;;;;-146.67;30.04;75296.56;5081411;27;61821;-83
2023/05/18 00:28:06;;;;;;;;;4.00;2.75;;;;;-146.67;30.16;75304.56;5085329;27;61782;-83
2023/05/18 00:30:32;;;;;;;;;0.00;0.00;;;;;-146.67;29.95;75304.56;5118060;27;61970;-83
2023/05/18 00:32:58;;;;;;;;;3.75;3.00;;;;;-146.67;29.86;75312.53;5084499;27;62913;-83
2023/05/18 00:35:23;;;;;;;;;2.50;1.50;;;;;-146.67;29.86;75308.56;5100648;27;61993;-83
2023/05/18 00:37:48;;;;;;;;;2.00;2.00;;;;;-146.67;29.87;75308.56;5084844;27;61771;-82
2023/05/18 00:40:14;;;;;;;;;4.00;4.00;;;;;-146.67;30.01;75308.56;5085168;27;61683;-82
2023/05/18 00:42:39;;;;;;;;;3.00;3.00;;;;;-146.67;29.89;75318.53;5084278;28;62385;-83
2023/05/18 00:45:05;;;;;;;;;2.50;2.50;;;;;-146.67;30.15;75316.53;5085016;28;61773;-83
2023/05/18 00:47:31;;;;;;;;;3.00;2.50;;;;;-146.67;30.14;75322.53;5084049;28;62148;-83
2023/05/18 00:49:56;;;;;;;;;1.25;1.25;;;;;-146.67;30.05;75316.53;5079897;28;61770;-83
2023/05/18 00:52:23;;;;;;;;;3.25;2.00;;;;;-146.67;29.92;75314.53;5063807;28;62395;-83
2023/05/18 00:54:49;;;;;;;;;0.25;0.25;;;;;-146.67;29.84;75322.53;5064364;28;61744;-83
2023/05/18 00:57:15;;;;;;;;;6.75;2.00;;;;;-146.67;30.20;75336.50;5064732;28;62022;-83
2023/05/18 00:59:41;;;;;;;;;5.50;2.50;;;;;-146.67;30.44;75334.50;5064227;28;62424;-83
2023/05/18 01:02:08;;;;;;;;;4.50;4.00;;;;;-146.67;30.06;75334.50;5062268;28;64465;-83
2023/05/18 01:04:33;;;;;;;;;3.75;3.00;;;;;-146.67;30.18;75334.50;5094573;27;61821;-83
2023/05/18 01:07:05;;;;;;;;;4.50;3.00;;;;;-146.67;30.28;75338.50;5084484;28;62146;-83
2023/05/18 01:09:31;;;;;;;;;3.50;2.00;;;;;-146.67;30.15;75334.50;5084389;28;61745;-82
2023/05/18 01:12:10;;;;;;;;;2.00;2.00;;;;;-146.67;30.08;75346.50;5099529;27;64812;-83
2023/05/18 01:14:48;;;;;;;;;5.00;2.75;;;;;-146.67;30.21;75342.50;5095431;27;61797;-82
2023/05/18 01:17:32;;;;;;;;;3.25;3.25;;;;;-146.67;30.40;75352.47;5103965;27;61873;-82
2023/05/18 01:20:09;;;;;;;;;4.25;3.00;;;;;-146.67;30.38;75350.50;5119617;27;61837;-83
2023/05/18 01:22:49;;;;;;;;;3.00;3.00;;;;;-146.67;30.23;75358.47;5101579;27;63661;-83
2023/05/18 01:25:40;;;;;;;;;2.00;2.00;;;;;-146.67;30.30;75354.47;5103492;27;62003;-83
2023/05/18 01:28:12;;;;;;;;;4.50;4.00;;;;;-146.67;30.51;75358.47;5098785;27;62214;-83
2023/05/18 01:30:40;;;;;;;;;2.50;2.00;;;;;-146.67;30.34;75360.47;5104778;27;62006;-83
2023/05/18 01:33:10;;;;;;;;;3.25;3.25;;;;;-146.67;30.50;75362.47;5088449;27;61885;-82
2023/05/18 01:35:36;;;;;;;;;2.75;1.75;;;;;-146.67;30.57;75368.47;5083750;27;61989;-83
2023/05/18 01:38:02;;;;;;;;;3.00;3.00;;;;;-146.67;30.41;75364.47;5083193;28;61925;-83
2023/05/18 01:40:34;;;;;;;;;0.50;0.50;;;;;-146.67;30.32;75366.47;5084496;27;61656;-82
2023/05/18 01:43:10;;;;;;;;;3.25;2.75;;;;;-146.67;30.66;75378.44;5098971;27;63773;-82
2023/05/18 01:45:42;;;;;;;;;3.25;3.25;;;;;-146.67;30.71;75384.44;5083909;27;61893;-83
2023/05/18 01:48:10;;;;;;;;;3.25;2.25;;;;;-146.67;30.57;75394.41;5083105;28;62354;-83
2023/05/18 01:50:42;;;;;;;;;3.00;2.00;;;;;-146.67;30.55;75394.41;5084227;28;61788;-83
2023/05/18 01:53:22;;;;;;;;;5.25;2.75;;;;;-146.67;30.83;75394.41;5082665;27;62078;-83
2023/05/18 01:55:50;;;;;;;;;2.00;1.00;;;;;-146.67;30.88;75424.38;5083977;28;61832;-83
2023/05/18 01:58:17;;;;;;;;;2.75;1.75;;;;;-146.67;30.78;75430.38;5075776;28;61797;-83
2023/05/18 02:00:45;;;;;;;;;3.75;3.00;;;;;-146.67;30.80;75428.38;5063738;28;61988;-83
2023/05/18 02:03:12;;;;;;;;;6.00;3.00;;;;;-146.67;30.94;75446.34;5077747;28;64041;-83
2023/05/18 02:05:37;;;;;;;;;4.50;2.50;;;;;-146.67;31.08;75448.34;5079434;28;61999;-83
2023/05/18 02:08:03;;;;;;;;;2.75;2.75;;;;;-146.67;30.94;75448.34;5083380;28;61875;-83
2023/05/18 02:10:28;;;;;;;;;6.00;3.25;;;;;-146.67;30.96;75478.28;5083543;27;62002;-83
2023/05/18 02:12:54;;;;;;;;;3.00;2.00;;;;;-146.67;31.11;75466.31;5082752;28;61938;-83
2023/05/18 02:15:20;;;;;;;;;5.00;2.00;;;;;-146.67;31.42;75478.28;5083324;28;62065;-83
2023/05/18 02:17:46;;;;;;;;;4.75;3.00;;;;;-146.67;31.16;75478.28;5081123;28;62538;-83
2023/05/18 02:20:12;;;;;;;;;7.00;3.00;;;;;-146.67;31.09;75488.28;5083234;28;61904;-83
2023/05/18 02:22:37;;;;;;;;;8.25;3.25;;;;;-146.67;31.33;75486.28;5082855;28;62998;-83
2023/05/18 02:25:06;;;;;;;;;3.25;2.75;;;;;-146.67;31.52;75498.25;5082899;28;61861;-83
2023/05/18 02:27:33;;;;;;;;;4.50;4.50;;;;;-146.67;31.39;75498.25;5081878;28;61865;-83
2023/05/18 02:29:59;;;;;;;;;5.00;5.00;;;;;-146.67;31.25;75488.28;5078811;28;62087;-83
2023/05/18 02:32:24;;;;;;;;;4.25;4.25;;;;;-146.67;31.34;75480.28;5060476;28;63579;-83
2023/05/18 02:34:53;;;;;;;;;3.75;3.75;;;;;-146.67;31.22;75476.28;5066536;28;61782;-83
2023/05/18 02:37:18;;;;;;;;;3.75;3.75;;;;;-146.67;31.27;75472.28;5082989;28;62313;-83
2023/05/18 02:39:43;;;;;;;;;6.00;5.00;;;;;-146.67;31.14;75468.31;5083183;28;61829;-81
2023/05/18 02:42:09;;;;;;;;;3.00;3.00;;;;;-146.67;31.24;75476.28;5099230;27;62017;-82
2023/05/18 02:44:34;;;;;;;;;4.00;4.00;;;;;-146.67;31.28;75464.31;5102123;27;62336;-82
2023/05/18 02:47:00;;;;;;;;;5.75;4.00;;;;;-146.67;31.08;75470.31;5102573;27;62467;-83
2023/05/18 02:49:25;;;;;;;;;5.50;2.00;;;;;-146.67;31.24;75464.31;5102203;27;61827;-83
2023/05/18 02:51:50;;;;;;;;;6.00;5.75;;;;;-146.67;31.27;75472.28;5093449;27;63631;-82
2023/05/18 02:54:16;;;;;;;;;4.00;4.00;;;;;-146.67;31.11;75478.28;5082729;27;61715;-83
2023/05/18 02:56:41;;;;;;;;;5.00;5.00;;;;;-146.67;31.03;75468.31;5082511;27;62074;-82
2023/05/18 02:59:07;;;;;;;;;6.50;4.00;;;;;-146.67;31.20;75472.28;5083079;27;61871;-83
2023/05/18 03:01:33;;;;;;;;;4.25;4.00;;;;;-146.67;31.35;75470.31;5097354;27;63483;-82
2023/05/18 03:03:59;;;;;;;;;4.00;2.25;;;;;-146.67;31.26;75468.31;5081392;28;62444;-83
2023/05/18 03:06:25;;;;;;;;;9.75;7.00;;;;;-146.67;31.25;75478.28;5098342;27;61891;-83
2023/05/18 03:08:53;;;;;;;;;4.25;2.00;;;;;-146.67;31.31;75480.28;5083056;27;61872;-83
2023/05/18 03:11:28;;;;;;;;;6.00;3.75;;;;;-146.67;31.08;75470.31;5081891;28;62564;-83
2023/05/18 03:13:53;;;;;;;;;5.00;4.00;;;;;-146.67;31.11;75476.28;5082672;27;61776;-83
2023/05/18 03:16:19;;;;;;;;;5.50;3.25;;;;;-146.67;31.10;75470.31;5080868;28;62127;-83
2023/05/18 03:18:44;;;;;;;;;5.00;3.00;;;;;-146.67;31.28;75476.28;5082352;28;61853;-83
2023/05/18 03:21:12;;;;;;;;;3.50;3.50;;;;;-146.67;31.12;75476.28;5082070;28;63033;-83
2023/05/18 03:23:37;;;;;;;;;7.00;5.00;;;;;-146.67;31.15;75474.28;5082443;27;61940;-83
2023/05/18 03:26:09;;;;;;;;;5.50;4.75;;;;;-146.67;31.28;75478.28;5082438;28;61732;-83
2023/05/18 03:28:35;;;;;;;;;6.00;3.75;;;;;-146.67;31.30;75474.28;5082478;28;61985;-83
2023/05/18 03:31:01;;;;;;;;;6.50;6.25;;;;;-146.67;31.18;75476.28;5079738;28;63577;-82
2023/05/18 03:33:27;;;;;;;;;4.75;4.75;;;;;-146.67;31.21;75478.28;5080771;28;61831;-83
2023/05/18 03:36:03;;;;;;;;;6.25;5.75;;;;;-146.67;31.08;75480.28;5080930;28;61829;-82
2023/05/18 03:38:29;;;;;;;;;4.00;4.00;;;;;-146.67;31.17;75476.28;5097888;27;61773;-83
2023/05/18 03:40:55;;;;;;;;;10.00;4.00;;;;;-146.67;31.17;75474.28;5080300;28;64828;-83
2023/05/18 03:43:24;;;;;;;;;4.00;3.75;;;;;-146.67;31.22;75476.28;5082172;27;62002;-83
2023/05/18 03:45:49;;;;;;;;;5.75;5.00;;;;;-146.67;31.08;75478.28;5082266;27;61794;-82
2023/05/18 03:48:14;;;;;;;;;4.00;4.00;;;;;-146.67;31.23;75480.28;5080635;28;62123;-82
2023/05/18 03:50:40;;;;;;;;;6.25;5.25;;;;;-146.67;31.20;75480.28;5081341;28;61780;-83
2023/05/18 03:53:05;;;;;;;;;8.25;5.50;;;;;-146.67;31.12;75484.28;5081967;28;61708;-82
2023/05/18 03:55:31;;;;;;;;;8.50;4.50;;;;;-146.67;31.10;75484.28;5064174;28;61937;-83
2023/05/18 03:57:57;;;;;;;;;6.00;5.00;;;;;-146.67;31.11;75494.25;5077609;27;62169;-83
2023/05/18 04:00:23;;;;;;;;;4.00;4.00;;;;;-146.67;31.15;75486.28;5082614;27;61895;-83
2023/05/18 04:02:50;;;;;;;;;5.75;5.00;;;;;-146.67;31.14;75490.28;5083940;28;62153;-83
2023/05/18 04:05:16;;;;;;;;;5.50;5.50;;;;;-146.67;31.21;75496.25;5083833;28;62222;-83
2023/05/18 04:07:45;;;;;;;;;4.75;4.75;;;;;-146.67;31.05;75510.25;5085193;28;61853;-83
2023/05/18 04:10:12;;;;;;;;;6.50;4.75;;;;;-146.67;31.20;75508.25;5083239;28;63812;-83
2023/05/18 04:12:38;;;;;;;;;5.00;4.00;;;;;-146.67;31.17;75522.22;5084957;28;61825;-83
2023/05/18 04:15:03;;;;;;;;;7.00;5.00;;;;;-146.67;31.14;75522.22;5084113;28;61941;-83
2023/05/18 04:17:29;;;;;;;;;4.00;4.00;;;;;-146.67;31.20;75524.22;5084725;28;61796;-83
2023/05/18 04:19:54;;;;;;;;;6.75;4.25;;;;;-146.67;31.25;75528.22;5084075;27;63023;-83
2023/05/18 04:22:20;;;;;;;;;5.25;5.25;;;;;-146.67;31.20;75526.22;5077635;27;61825;-82
2023/05/18 04:24:47;;;;;;;;;6.50;4.25;;;;;-146.67;31.34;75526.22;5064561;28;61892;-83
2023/05/18 04:27:12;;;;;;;;;9.75;5.50;;;;;-146.67;31.10;75526.22;5065145;28;61895;-82
2023/05/18 04:29:39;;;;;;;;;4.25;4.00;;;;;-146.67;31.29;75520.22;5064087;28;63201;-83
2023/05/18 04:32:09;;;;;;;;;11.75;6.75;;;;;-146.67;31.25;75518.22;5065122;28;61955;-83
2023/05/18 04:34:39;;;;;;;;;6.00;5.50;;;;;-146.67;31.20;75522.22;5097971;27;61931;-83
2023/05/18 04:37:05;;;;;;;;;8.75;6.00;;;;;-146.67;31.15;75528.22;5097296;27;61800;-82
2023/05/18 04:39:33;;;;;;;;;7.00;4.50;;;;;-146.67;31.05;75530.22;5081627;27;62122;-83
2023/05/18 04:41:59;;;;;;;;;7.75;5.00;;;;;-146.67;31.24;75528.22;5103416;27;62330;-83
2023/05/18 04:44:26;;;;;;;;;6.25;5.25;;;;;-146.67;31.27;75526.22;5105470;27;62041;-83
2023/05/18 04:46:52;;;;;;;;;7.25;6.00;;;;;-146.67;31.18;75526.22;5091943;27;61897;-82
2023/05/18 04:49:20;;;;;;;;;5.00;3.75;;;;;-146.67;31.32;75528.22;5082700;28;63974;-83
2023/05/18 04:51:49;;;;;;;;;5.75;5.75;;;;;-146.67;31.37;75524.22;5083327;28;61874;-83
2023/05/18 04:54:15;;;;;;;;;7.75;5.75;;;;;-146.67;31.31;75514.22;5084863;27;61731;-83
2023/05/18 04:56:41;;;;;;;;;6.25;6.00;;;;;-146.67;31.10;75516.22;5083283;28;61854;-83
2023/05/18 04:59:08;;;;;;;;;7.00;6.00;;;;;-146.67;31.11;75508.25;5083587;28;61782;-83
2023/05/18 05:01:33;;;;;;;;;6.25;5.00;;;;;-146.67;31.01;75504.25;5083034;28;61950;-82
2023/05/18 05:03:59;;;;;;;;;9.75;6.25;;;;;-146.67;30.97;75508.25;5095768;27;61867;-82
2023/05/18 05:06:24;;;;;;;;;8.75;7.00;;;;;-146.67;30.92;75496.25;5084718;28;61985;-82
2023/05/18 05:08:50;;;;;;;;;9.50;5.25;;;;;-146.67;31.08;75488.28;5083684;28;62595;-83
2023/05/18 05:11:16;;;;;;;;;7.25;4.75;;;;;-146.67;30.79;75482.28;5081832;28;62040;-82
2023/05/18 05:13:41;;;;;;;;;6.50;4.75;;;;;-146.67;30.83;75476.28;5084058;28;62294;-83
2023/05/18 05:16:06;;;;;;;;;9.50;4.00;;;;;-146.67;30.83;75468.31;5082701;28;61967;-82
2023/05/18 05:18:32;;;;;;;;;6.00;5.25;;;;;-146.67;30.60;75458.31;5082576;27;61803;-83
2023/05/18 05:20:58;;;;;;;;;13.25;7.00;;;;;-146.67;30.54;75444.34;5083457;27;62359;-84
2023/05/18 05:23:23;;;;;;;;;13.75;9.00;;;;;-146.67;30.63;75442.34;5081762;28;62067;-83
2023/05/18 05:25:49;;;;;;;;;6.00;6.00;;;;;-146.67;30.37;75438.34;5082639;27;61940;-83
2023/05/18 05:28:14;;;;;;;;;5.00;4.00;;;;;-146.67;30.60;75444.34;5082845;27;62889;-82
2023/05/18 05:30:40;;;;;;;;;10.00;8.25;;;;;-146.67;30.29;75438.34;5073914;28;62018;-83
2023/05/18 05:33:05;;;;;;;;;12.50;9.00;;;;;-146.67;30.60;75438.34;5063800;28;61760;-83
2023/05/18 05:35:30;;;;;;;;;7.25;6.00;;;;;-146.67;30.30;75428.38;5080406;27;62308;-83
2023/05/18 05:37:56;;;;;;;;;5.75;5.75;;;;;-146.67;30.21;75414.38;5102651;27;63889;-83
2023/05/18 05:40:21;;;;;;;;;6.00;5.50;;;;;-146.67;30.20;75406.41;5099999;27;62428;-84
2023/05/18 05:42:47;;;;;;;;;8.50;7.00;;;;;-146.67;29.94;75402.41;5103254;27;61832;-84
2023/05/18 05:45:12;;;;;;;;;11.25;6.75;;;;;-146.67;30.26;75400.41;5104821;27;61745;-83
2023/05/18 05:47:38;;;;;;;;;11.00;7.00;;;;;-146.67;29.85;75384.44;5092314;27;64620;-85
2023/05/18 05:50:04;;;;;;;;;9.25;7.00;;;;;-146.67;29.78;75356.47;5083783;27;62105;-85
2023/05/18 05:52:30;;;;;;;;;6.00;6.00;;;;;-146.67;29.67;75332.50;5083329;27;62232;-82
2023/05/18 05:54:56;;;;;;;;;10.25;7.00;;;;;-146.67;29.68;75318.53;5083208;28;61757;-82
2023/05/18 05:57:21;;;;;;;;;8.50;6.75;;;;;-146.67;29.56;75288.59;5082666;28;63135;-82
2023/05/18 05:59:46;;;;;;;;;11.25;7.50;;;;;-146.67;29.24;75248.66;5083551;27;61798;-82
2023/05/18 06:02:12;;;;;;;;;7.00;6.50;;;;;-146.67;28.92;75208.72;5085733;27;61710;-82
2023/05/18 06:04:37;;;;;;;;;5.50;5.50;;;;;-146.67;28.81;75180.75;5092000;27;62096;-81
2023/05/18 06:07:06;;;;;;;;;10.00;6.50;;;;;-146.67;28.78;75146.81;5081527;28;63399;-82
2023/05/18 06:09:33;;;;;;;;;14.00;8.00;;;;;-146.67;28.36;75118.84;5080169;28;62248;-82
2023/05/18 06:12:01;;;;;;;;;9.50;8.00;;;;;-146.67;28.10;75110.88;5081570;28;61930;-82
2023/05/18 06:14:28;;;;;;;;;5.25;4.00;;;;;-146.67;28.44;75094.91;5101598;27;61981;-82
2023/05/18 06:16:56;;;;;;;;;9.00;7.50;;;;;-146.67;28.04;75086.91;5097502;27;63764;-82
2023/05/18 06:19:24;;;;;;;;;7.75;7.00;;;;;-146.67;28.00;75078.91;5097624;27;61900;-84
2023/05/18 06:21:52;;;;;;;;;7.75;5.75;;;;;-146.67;28.04;75092.91;5082734;27;61851;-85
2023/05/18 06:24:21;;;;;;;;;8.25;7.00;;;;;-146.67;27.90;75094.91;5082048;27;61862;-81
2023/05/18 06:26:48;;;;;;;;;5.25;5.25;;;;;-146.67;27.93;75074.94;5078351;27;62430;-82
2023/05/18 06:29:17;;;;;;;;;6.00;6.00;;;;;-146.67;28.02;75054.97;5079679;27;61861;-83
2023/05/18 06:31:45;;;;;;;;;4.50;4.50;;;;;-146.67;27.97;75054.97;5083126;28;62035;-83
2023/05/18 06:34:13;;;;;;;;;10.25;7.50;;;;;-146.67;27.56;75037.00;5083041;27;61796;-82
2023/05/18 06:36:41;;;;;;;;;6.75;6.75;;;;;-146.67;27.46;75021.00;5075303;28;62155;-82
2023/05/18 06:39:09;;;;;;;;;9.25;5.50;;;;;-146.67;27.61;75015.03;5073094;28;61816;-82
2023/05/18 06:41:37;;;;;;;;;9.50;6.50;;;;;-146.67;27.50;75017.03;5079955;28;62074;-83
2023/05/18 06:44:05;;;;;;;;;7.25;7.25;;;;;-146.67;27.76;75023.00;5077689;27;61939;-81
2023/05/18 06:46:32;;;;;;;;;7.25;4.25;;;;;-146.67;27.55;75017.03;5072118;27;62148;-82
2023/05/18 06:49:00;;;;;;;;;9.50;7.25;;;;;-146.67;27.63;75017.03;5070515;28;62169;-80
2023/05/18 06:51:27;;;;;;;;;11.25;6.50;;;;;-146.67;27.67;75015.03;5071403;27;62004;-84
2023/05/18 06:53:53;;;;;;;;;14.00;6.75;;;;;-146.67;27.76;75017.03;5077088;28;61866;-80
2023/05/18 06:56:21;;;;;;;;;14.00;8.00;;;;;-146.67;27.58;75025.00;5075405;28;62868;-80
2023/05/18 06:58:48;;;;;;;;;9.00;6.00;;;;;-146.67;27.66;75025.00;5070360;28;62164;-79
2023/05/18 07:01:19;;;;;;;;;7.50;5.00;;;;;-146.67;27.66;75009.03;5069563;28;62148;-79
2023/05/18 07:03:46;;;;;;;;;4.00;2.50;;;;;-146.67;27.42;75007.03;5071409;28;61943;-80
2023/05/18 07:06:12;;;;;;;;;0.00;0.00;;;;;-146.67;27.64;75013.03;5070968;28;63237;-79
2023/05/18 07:08:40;;;;;;;;;8.25;6.25;;;;;-146.67;27.25;74979.09;5080520;28;61962;-83
2023/05/18 07:11:08;;;;;;;;;0.00;0.00;;;;;-146.67;27.19;74965.09;5082312;27;61867;-83
2023/05/18 07:13:35;;;;;;;;;0.00;0.00;;;;;-146.67;26.79;74939.16;5082471;27;61857;-82
2023/05/18 07:16:03;;;;;;;;;0.00;0.00;;;;;-146.67;27.04;74923.19;5080180;28;63482;-83
2023/05/18 07:18:30;;;;;;;;;7.00;5.75;;;;;-146.67;26.79;74897.22;5081808;28;61872;-83
2023/05/18 07:20:56;;;;;;;;;0.00;0.00;;;;;-146.67;26.89;74879.25;5071361;27;61877;-83
2023/05/18 07:23:22;;;;;;;;;8.25;6.50;;;;;-146.67;26.54;74867.28;5072588;27;62215;-83
2023/05/18 07:25:48;;;;;;;;;0.00;0.00;;;;;-146.67;26.52;74853.28;5080516;28;64685;-83
2023/05/18 07:28:13;;;;;;;;;0.00;0.00;;;;;-146.67;26.09;74845.31;5079920;28;61866;-83
2023/05/18 07:30:39;;;;;;;;;3.75;3.75;;;;;-146.67;26.45;74823.34;5080679;28;61921;-84
2023/05/18 07:33:04;;;;;;;;;9.25;5.25;;;;;-146.67;26.22;74839.31;5080035;28;62135;-84
2023/05/18 07:35:30;;;;;;;;;10.00;6.25;;;;;-146.67;25.53;74843.31;5081788;28;63003;-84
2023/05/18 07:37:56;;;;;;;;;10.75;5.25;;;;;-146.67;26.18;74837.31;5082500;28;62143;-83
2023/05/18 07:40:21;;;;;;;;;5.00;4.25;;;;;-146.67;26.00;74821.34;5083866;28;62038;-83
2023/05/18 07:42:47;;;;;;;;;11.00;8.00;;;;;-146.67;25.93;74827.34;5083885;28;61750;-83
2023/05/18 07:45:12;;;;;;;;;3.25;3.25;;;;;-146.67;26.50;74869.28;5084877;28;62023;-84
2023/05/18 07:47:38;;;;;;;;;0.00;0.00;;;;;-146.67;26.25;74871.25;5085474;28;61782;-83
2023/05/18 07:50:05;;;;;;;;;0.00;0.00;;;;;-146.67;26.12;74839.31;5085637;28;61825;-83
2023/05/18 07:52:30;;;;;;;;;0.00;0.00;;;;;-146.67;25.97;74815.38;5084926;28;61985;-81
2023/05/18 07:54:56;;;;;;;;;1.75;1.25;;;;;-146.67;26.33;74829.34;5084878;28;61951;-83
2023/05/18 07:57:22;;;;;;;;;0.00;0.00;;;;;-146.67;25.97;74815.38;5086083;28;61978;-84
2023/05/18 07:59:47;;;;;;;;;5.50;3.50;;;;;-146.67;25.86;74787.41;5085839;28;62172;-84
2023/05/18 08:02:15;;;;;;;;;0.00;0.00;;;;;-146.67;26.02;74761.44;5084768;28;62135;-84
2023/05/18 08:04:40;;;;;;;;;0.00;0.00;;;;;-146.67;25.59;74749.47;5083800;28;61735;-84
2023/05/18 08:07:06;;;;;;;;;8.75;2.50;;;;;-146.67;25.67;74735.50;5085627;28;61663;-83
2023/05/18 08:09:31;;;;;;;;;0.00;0.00;;;;;-146.67;25.38;74727.50;5085855;28;61985;-83
2023/05/18 08:11:57;;;;;;;;;0.00;0.00;;;;;-146.67;25.50;74725.50;5085620;28;62124;-84
2023/05/18 08:14:22;;;;;;;;;0.00;0.00;;;;;-146.67;25.24;74719.53;5083784;28;63917;-84
2023/05/18 08:16:48;;;;;;;;;0.00;0.00;;;;;-146.67;25.22;74723.50;5084007;28;61916;-82
2023/05/18 08:19:13;;;;;;;;;4.00;2.00;;;;;-146.67;25.37;74721.53;5083721;28;61754;-83
2023/05/18 08:21:38;;;;;;;;;0.00;0.00;;;;;-146.67;25.42;74727.50;5084462;28;61753;-83
2023/05/18 08:24:05;;;;;;;;;0.00;0.00;;;;;-146.67;25.24;74745.47;5084623;28;63078;-83
2023/05/18 08:26:31;;;;;;;;;0.00;0.00;;;;;-146.67;25.52;74761.44;5085670;28;62058;-84
2023/05/18 08:28:56;;;;;;;;;0.00;0.00;;;;;-146.67;25.50;74765.44;5085416;28;61901;-83
2023/05/18 08:31:21;;;;;;;;;2.00;2.00;;;;;-146.67;25.50;74777.44;5084581;28;61773;-84
2023/05/18 08:33:47;;;;;;;;;0.00;0.00;;;;;-146.67;25.16;74781.41;5084624;28;62006;-83
2023/05/18 08:36:13;;;;;;;;;0.00;0.00;;;;;-146.67;25.40;74787.41;5085146;28;61964;-83
2023/05/18 08:38:38;;;;;;;;;0.00;0.00;;;;;-146.67;25.27;74791.41;5085462;28;61868;-84
2023/05/18 08:41:13;;;;;;;;;4.75;4.00;;;;;-146.67;25.39;74823.34;5085039;28;62154;-84
2023/05/18 08:43:44;;;;;;;;;0.00;0.00;;;;;-146.67;25.75;74835.31;5084729;28;62986;-84
2023/05/18 08:46:18;;;;;;;;;0.00;0.00;;;;;-146.67;25.73;74843.31;5083698;28;62176;-84
2023/05/18 08:48:47;;;;;;;;;2.00;2.00;;;;;-146.67;25.59;74883.25;5082976;28;61981;-83
2023/05/18 08:51:13;;;;;;;;;0.00;0.00;;;;;-146.67;25.37;74881.25;5083883;28;61840;-83
2023/05/18 08:53:39;;;;;;;;;0.00;0.00;;;;;-146.67;25.86;74863.28;5084466;28;61973;-83
2023/05/18 08:56:05;;;;;;;;;3.75;2.75;;;;;-146.67;25.65;74861.28;5084858;28;61771;-83
2023/05/18 08:58:35;;;;;;;;;0.00;0.00;;;;;-146.67;25.50;74849.31;5084994;28;61910;-83
2023/05/18 09:01:01;;;;;;;;;0.00;0.00;;;;;-146.67;25.54;74835.31;5083657;28;61757;-84
2023/05/18 09:03:27;;;;;;;;;0.00;0.00;;;;;-146.67;25.42;74829.34;5082717;28;64101;-83
2023/05/18 09:05:55;;;;;;;;;0.00;0.00;;;;;-146.67;25.59;74829.34;5083937;28;61987;-84
2023/05/18 09:08:22;;;;;;;;;4.25;4.25;;;;;-146.67;25.07;74839.31;5084401;28;61975;-83
2023/05/18 09:10:49;;;;;;;;;3.00;3.00;;;;;-146.67;25.59;74839.31;5083338;28;62122;-83
2023/05/18 09:13:19;;;;;;;;;0.00;0.00;;;;;-146.67;25.55;74835.31;5084079;28;62184;-83
2023/05/18 09:15:45;;;;;;;;;0.00;0.00;;;;;-146.67;25.68;74859.28;5084915;28;61966;-83
2023/05/18 09:18:10;;;;;;;;;5.50;5.50;;;;;-146.67;25.49;74929.16;5083663;28;61786;-84
2023/05/18 09:20:35;;;;;;;;;4.00;3.00;;;;;-146.67;25.74;74937.16;5083428;28;61828;-83
2023/05/18 09:23:01;;;;;;;;;0.00;0.00;;;;;-146.67;25.84;74909.19;5084174;28;62999;-83
2023/05/18 09:25:30;;;;;;;;;0.00;0.00;;;;;-146.67;25.25;74899.22;5084270;28;61852;-83
2023/05/18 09:27:56;;;;;;;;;0.00;0.00;;;;;-146.67;25.66;74883.25;5083529;28;61909;-84
2023/05/18 09:30:23;;;;;;;;;7.75;6.50;;;;;-146.67;25.76;74873.25;5084339;28;61901;-84
2023/05/18 09:32:49;;;;;;;;;5.50;5.50;;;;;-146.67;25.40;74883.25;5083359;28;63540;-83
2023/05/18 09:35:15;;;;;;;;;7.25;5.50;;;;;-146.67;25.37;74883.25;5084019;28;61792;-84
2023/05/18 09:37:41;;;;;;;;;0.00;0.00;;;;;-146.67;25.88;74877.25;5084064;28;61779;-83
2023/05/18 09:40:07;;;;;;;;;0.00;0.00;;;;;-146.67;25.74;74863.28;5084506;28;61847;-82
2023/05/18 09:42:42;;;;;;;;;7.50;5.00;;;;;-146.67;25.52;74847.31;5083276;28;62885;-83
2023/05/18 09:45:25;;;;;;;;;0.00;0.00;;;;;-146.67;25.51;74833.31;5084410;28;61788;-82
2023/05/18 09:47:51;;;;;;;;;9.75;7.25;;;;;-146.67;25.77;74827.34;5083337;28;62175;-82
2023/05/18 09:50:21;;;;;;;;;0.00;0.00;;;;;-146.67;25.58;74817.34;5082843;28;62205;-83
2023/05/18 09:52:48;;;;;;;;;0.00;0.00;;;;;-146.67;25.31;74789.41;5083618;28;61995;-83
2023/05/18 09:55:18;;;;;;;;;4.25;3.25;;;;;-146.67;25.36;74777.44;5082615;28;61933;-82
2023/05/18 09:57:47;;;;;;;;;7.25;7.00;;;;;-146.67;25.68;74763.44;5083198;28;61917;-83
2023/05/18 10:00:14;;;;;;;;;11.75;9.00;;;;;-146.67;25.16;74747.47;5082566;28;61744;-83
2023/05/18 10:02:48;;;;;;;;;0.00;0.00;;;;;-146.67;25.45;74743.47;5083067;28;61867;-83
2023/05/18 10:05:26;;;;;;;;;0.00;0.00;;;;;-146.67;25.33;74725.50;5092926;27;61987;-82
2023/05/18 10:07:56;;;;;;;;;8.00;8.00;;;;;-146.67;25.03;74779.41;5084047;28;61906;-84
2023/05/18 10:10:24;;;;;;;;;5.00;3.75;;;;;-146.67;25.48;74751.47;5083733;28;62159;-82
2023/05/18 10:12:50;;;;;;;;;0.00;0.00;;;;;-146.67;25.36;74711.53;5083351;28;62085;-83
2023/05/18 10:15:18;;;;;;;;;0.00;0.00;;;;;-146.67;24.72;74691.56;5099091;27;61943;-83
2023/05/18 10:17:45;;;;;;;;;0.00;0.00;;;;;-146.67;24.72;74667.63;5083239;28;61986;-83
2023/05/18 10:20:16;;;;;;;;;0.00;0.00;;;;;-146.67;24.67;74645.66;5099693;27;61752;-83
2023/05/18 10:22:45;;;;;;;;;0.00;0.00;;;;;-146.67;24.89;74651.66;5082997;28;61969;-83
2023/05/18 10:25:15;;;;;;;;;15.50;9.00;;;;;-146.67;24.28;74637.66;5082035;28;61940;-83
2023/05/18 10:27:43;;;;;;;;;6.00;3.00;;;;;-146.67;24.52;74659.63;5083391;28;61860;-83
2023/05/18 10:30:09;;;;;;;;;0.00;0.00;;;;;-146.67;24.84;74665.63;5083573;28;61895;-83
2023/05/18 10:32:35;;;;;;;;;0.00;0.00;;;;;-146.67;24.89;74657.63;5082754;28;61998;-84
2023/05/18 10:35:04;;;;;;;;;0.00;0.00;;;;;-146.67;24.96;74643.66;5083558;28;61797;-83
2023/05/18 10:37:30;;;;;;;;;2.00;2.00;;;;;-146.67;24.22;74665.63;5083336;28;61809;-84
2023/05/18 10:39:58;;;;;;;;;0.00;0.00;;;;;-146.67;24.62;74671.59;5083993;28;62059;-84
2023/05/18 10:42:25;;;;;;;;;6.33;4.33;;;;;-146.67;24.11;74673.59;5081139;28;63797;-84
2023/05/18 10:44:52;;;;;;;;;0.00;0.00;;;;;-146.67;24.55;74659.63;5082960;28;61788;-83
2023/05/18 10:47:19;;;;;;;;;0.00;0.00;;;;;-146.67;24.01;74635.66;5083146;28;61933;-83
2023/05/18 10:49:48;;;;;;;;;0.00;0.00;;;;;-146.67;24.06;74623.69;5083312;28;62199;-83
2023/05/18 10:52:15;;;;;;;;;0.00;0.00;;;;;-146.67;23.75;74615.72;5081202;28;63824;-83
2023/05/18 10:54:42;;;;;;;;;0.00;0.00;;;;;-146.67;23.85;74595.75;5083046;28;61684;-83
2023/05/18 10:57:12;;;;;;;;;0.00;0.00;;;;;-146.67;23.82;74575.78;5083288;28;61844;-83
2023/05/18 10:59:45;;;;;;;;;0.00;0.00;;;;;-146.67;23.91;74549.81;5082882;28;61822;-84
2023/05/18 11:02:14;;;;;;;;;0.00;0.00;;;;;-146.67;23.11;74539.84;5082506;28;63072;-83
2023/05/18 11:04:40;;;;;;;;;0.00;0.00;;;;;-146.67;23.44;74525.88;5098552;27;61785;-83
2023/05/18 11:07:12;;;;;;;;;0.00;0.00;;;;;-146.67;23.28;74493.91;5083162;28;61834;-84
2023/05/18 11:09:42;;;;;;;;;1.00;1.00;;;;;-146.67;23.68;74467.97;5097497;27;62204;-83
2023/05/18 11:12:13;;;;;;;;;0.00;0.00;;;;;-146.67;23.39;74459.97;5082266;28;61844;-82
2023/05/18 11:14:53;;;;;;;;;0.00;0.00;;;;;-146.67;23.31;74448.00;5082395;28;62088;-83
2023/05/18 11:17:20;;;;;;;;;0.00;0.00;;;;;-146.67;22.98;74438.03;5082586;28;61975;-83